Time;durP1;ratioP1;P1;durP2;ratioP2;P2;SDS_P1;SDS_P2;PMS_P1;PMS_P2;Temp;Humidity;BMP_temperature;BMP_pressure;BME280_temperature;BME280_humidity;BME280_pressure;Samples;Min_cycle;Max_cycle;Signal;HPM_P1;HPM_P2
2024/03/18 00:02:01;;;;;;;4.60;3.63;;;;;;;;;;5062785;28;20231;-89
2024/03/18 00:04:27;;;;;;;3.37;2.23;;;;;;;;;;5046450;28;21117;-90
2024/03/18 00:06:53;;;;;;;2.37;2.23;;;;;;;;;;5064738;28;20520;-90
2024/03/18 00:09:20;;;;;;;4.60;2.37;;;;;;;;;;5048211;28;20657;-88
2024/03/18 00:11:46;;;;;;;4.27;3.87;;;;;;;;;;5064998;28;20285;-89
2024/03/18 00:14:13;;;;;;;5.57;2.50;;;;;;;;;;5084027;28;20289;-91
2024/03/18 00:16:39;;;;;;;4.03;3.40;;;;;;;;;;5050338;28;20228;-89
2024/03/18 00:19:05;;;;;;;2.53;2.27;;;;;;;;;;5083456;28;20695;-89
2024/03/18 00:21:31;;;;;;;14.10;1.67;;;;;;;;;;5067756;28;20726;-91
2024/03/18 00:24:00;;;;;;;1.30;1.20;;;;;;;;;;5067134;28;20318;-87
2024/03/18 00:26:28;;;;;;;2.90;1.80;;;;;;;;;;5082619;28;20232;-91
2024/03/18 00:28:54;;;;;;;2.63;2.10;;;;;;;;;;5073644;28;20244;-89
2024/03/18 00:31:20;;;;;;;4.67;2.90;;;;;;;;;;5058580;28;20232;-91
2024/03/18 00:33:47;;;;;;;4.43;2.27;;;;;;;;;;5067336;28;20204;-89
2024/03/18 00:36:13;;;;;;;3.07;2.27;;;;;;;;;;5057195;28;20234;-90
2024/03/18 00:38:41;;;;;;;2.63;1.53;;;;;;;;;;5065076;28;20282;-90
2024/03/18 00:43:55;;;;;;;2.47;2.27;;;;;;;;;;5084370;28;20263;-90
2024/03/18 00:46:21;;;;;;;2.40;1.87;;;;;;;;;;5049580;28;20239;-90
2024/03/18 00:48:47;;;;;;;3.13;2.07;;;;;;;;;;5083812;28;20298;-90
2024/03/18 00:51:13;;;;;;;1.70;1.60;;;;;;;;;;5050281;28;20754;-90
2024/03/18 00:53:39;;;;;;;6.10;3.17;;;;;;;;;;5066260;28;20693;-90
2024/03/18 00:56:06;;;;;;;4.73;1.70;;;;;;;;;;5050166;28;20232;-90
2024/03/18 00:58:33;;;;;;;6.97;2.43;;;;;;;;;;5081928;28;20282;-90
2024/03/18 01:00:59;;;;;;;4.57;1.97;;;;;;;;;;5050105;28;20215;-91
2024/03/18 01:03:26;;;;;;;2.17;1.87;;;;;;;;;;5087701;28;20212;-91
2024/03/18 01:05:54;;;;;;;2.63;2.43;;;;;;;;;;5063148;28;20234;-90
2024/03/18 01:08:21;;;;;;;3.40;2.40;;;;;;;;;;5086740;28;20242;-90
2024/03/18 01:10:48;;;;;;;3.20;1.57;;;;;;;;;;5060234;28;20234;-91
2024/03/18 01:13:17;;;;;;;7.37;2.77;;;;;;;;;;5053394;28;20265;-90
2024/03/18 01:15:45;;;;;;;2.57;2.37;;;;;;;;;;5054538;28;20280;-90
2024/03/18 01:18:11;;;;;;;4.87;3.03;;;;;;;;;;5070408;28;20548;-90
2024/03/18 01:20:38;;;;;;;3.00;2.67;;;;;;;;;;5069324;28;21029;-89
2024/03/18 01:23:04;;;;;;;2.20;2.10;;;;;;;;;;5086965;28;20236;-89
2024/03/18 01:25:30;;;;;;;1.20;1.10;;;;;;;;;;5069855;28;21163;-89
2024/03/18 01:27:57;;;;;;;5.53;3.33;;;;;;;;;;5069600;28;20208;-89
2024/03/18 01:30:23;;;;;;;1.07;1.07;;;;;;;;;;5069425;28;20219;-89
2024/03/18 01:32:49;;;;;;;2.17;1.97;;;;;;;;;;5067202;28;20232;-89
2024/03/18 01:35:19;;;;;;;5.97;1.87;;;;;;;;;;5053351;28;20290;-90
2024/03/18 01:37:45;;;;;;;2.43;2.23;;;;;;;;;;5053117;28;20259;-90
2024/03/18 01:40:15;;;;;;;3.00;2.70;;;;;;;;;;5069731;28;20227;-89
2024/03/18 01:42:42;;;;;;;3.40;3.10;;;;;;;;;;5086639;28;20657;-91
2024/03/18 01:45:09;;;;;;;0.90;0.90;;;;;;;;;;5069783;28;20247;-91
2024/03/18 01:47:36;;;;;;;7.47;4.47;;;;;;;;;;5061900;28;20550;-92
2024/03/18 01:50:02;;;;;;;5.07;4.10;;;;;;;;;;5087960;28;20273;-90
2024/03/18 01:52:29;;;;;;;3.33;3.03;;;;;;;;;;5069148;28;20243;-90
2024/03/18 01:54:59;;;;;;;3.03;2.47;;;;;;;;;;5053018;28;20240;-91
2024/03/18 01:57:30;;;;;;;3.23;2.90;;;;;;;;;;5062465;28;20208;-90
2024/03/18 01:59:57;;;;;;;4.27;2.70;;;;;;;;;;5069344;28;20236;-90
2024/03/18 02:02:24;;;;;;;6.83;3.63;;;;;;;;;;5068805;28;20224;-90
2024/03/18 02:04:50;;;;;;;5.83;3.07;;;;;;;;;;5063384;28;20251;-90
2024/03/18 02:07:26;;;;;;;1.83;1.47;;;;;;;;;;5069179;28;20723;-87
2024/03/18 02:09:52;;;;;;;3.73;2.77;;;;;;;;;;5061373;28;20571;-91
2024/03/18 02:12:19;;;;;;;4.33;1.97;;;;;;;;;;5069639;28;20244;-91
2024/03/18 02:14:46;;;;;;;7.10;4.50;;;;;;;;;;5084806;28;20715;-90
2024/03/18 02:17:12;;;;;;;6.43;3.57;;;;;;;;;;5068814;28;20248;-89
2024/03/18 02:19:39;;;;;;;2.17;2.00;;;;;;;;;;5068881;28;20236;-90
2024/03/18 02:22:09;;;;;;;3.37;2.37;;;;;;;;;;5048967;28;20232;-89
2024/03/18 02:24:35;;;;;;;2.90;2.70;;;;;;;;;;5066523;28;20684;-89
2024/03/18 02:27:08;;;;;;;7.47;3.07;;;;;;;;;;5069195;28;20243;-90
2024/03/18 02:29:34;;;;;;;3.30;1.83;;;;;;;;;;5069332;28;20653;-89
2024/03/18 02:32:01;;;;;;;3.13;2.27;;;;;;;;;;5068758;28;20728;-90
2024/03/18 02:34:27;;;;;;;2.80;2.63;;;;;;;;;;5052332;28;20302;-90
2024/03/18 02:36:56;;;;;;;15.13;4.03;;;;;;;;;;5052112;28;20209;-90
2024/03/18 02:39:22;;;;;;;3.40;3.07;;;;;;;;;;5069582;28;20211;-90
2024/03/18 02:41:49;;;;;;;3.43;2.13;;;;;;;;;;5069055;28;20324;-90
2024/03/18 02:44:16;;;;;;;3.63;3.33;;;;;;;;;;5068249;28;20247;-88
2024/03/18 02:46:44;;;;;;;5.77;2.33;;;;;;;;;;5060215;28;20786;-89
2024/03/18 02:49:11;;;;;;;2.53;1.37;;;;;;;;;;5066745;28;20228;-89
2024/03/18 02:51:37;;;;;;;3.33;3.13;;;;;;;;;;5069042;28;20782;-90
2024/03/18 02:54:06;;;;;;;2.83;2.53;;;;;;;;;;5068681;28;21566;-90
2024/03/18 02:56:32;;;;;;;7.63;3.90;;;;;;;;;;5068113;28;20672;-89
2024/03/18 02:58:58;;;;;;;4.50;2.83;;;;;;;;;;5051632;28;20728;-89
2024/03/18 03:01:29;;;;;;;3.13;2.33;;;;;;;;;;5083565;28;20236;-90
2024/03/18 03:03:55;;;;;;;4.33;2.93;;;;;;;;;;5058754;28;20258;-90
2024/03/18 03:06:22;;;;;;;3.77;3.47;;;;;;;;;;5068999;28;20208;-90
2024/03/18 03:08:48;;;;;;;4.43;3.10;;;;;;;;;;5085875;28;20263;-90
2024/03/18 03:11:17;;;;;;;4.77;3.27;;;;;;;;;;5067750;28;20713;-91
2024/03/18 03:13:43;;;;;;;2.63;2.40;;;;;;;;;;5051483;28;20689;-90
2024/03/18 03:16:12;;;;;;;4.43;3.47;;;;;;;;;;5059456;28;20212;-89
2024/03/18 03:18:39;;;;;;;4.07;3.47;;;;;;;;;;5066647;28;20200;-90
2024/03/18 03:21:10;;;;;;;4.30;3.43;;;;;;;;;;5066929;28;20265;-90
2024/03/18 03:23:37;;;;;;;2.37;1.83;;;;;;;;;;5082325;28;20229;-89
2024/03/18 03:26:03;;;;;;;3.67;3.37;;;;;;;;;;5082502;28;20239;-91
2024/03/18 03:28:30;;;;;;;5.13;2.77;;;;;;;;;;5066939;28;20229;-90
2024/03/18 03:31:03;;;;;;;4.67;2.63;;;;;;;;;;5058791;28;20206;-89
2024/03/18 03:33:29;;;;;;;4.80;3.80;;;;;;;;;;5068062;28;20661;-90
2024/03/18 03:35:55;;;;;;;7.30;2.57;;;;;;;;;;5067302;28;20228;-90
2024/03/18 03:38:22;;;;;;;4.63;3.37;;;;;;;;;;5067572;28;20285;-92
2024/03/18 03:40:52;;;;;;;3.33;3.03;;;;;;;;;;5059592;28;20228;-90
2024/03/18 03:43:18;;;;;;;4.20;3.67;;;;;;;;;;5057609;28;20298;-91
2024/03/18 03:45:49;;;;;;;1.93;1.83;;;;;;;;;;5067621;28;20288;-90
2024/03/18 03:48:15;;;;;;;5.07;3.53;;;;;;;;;;5084163;28;20297;-90
2024/03/18 03:50:41;;;;;;;5.10;2.37;;;;;;;;;;5067769;28;20351;-92
2024/03/18 03:53:07;;;;;;;5.53;2.90;;;;;;;;;;5085566;28;20255;-90
2024/03/18 03:55:39;;;;;;;4.27;3.97;;;;;;;;;;5066051;28;20240;-90
2024/03/18 03:58:06;;;;;;;5.17;3.30;;;;;;;;;;5067162;28;20196;-90
2024/03/18 04:00:32;;;;;;;3.57;3.20;;;;;;;;;;5051494;28;20208;-91
2024/03/18 04:02:58;;;;;;;4.17;3.33;;;;;;;;;;5066899;28;20278;-91
2024/03/18 04:05:24;;;;;;;4.97;3.70;;;;;;;;;;5083088;28;20796;-91
2024/03/18 04:07:51;;;;;;;4.03;2.70;;;;;;;;;;5066162;28;20249;-90
2024/03/18 04:10:17;;;;;;;6.07;3.00;;;;;;;;;;5057426;28;20244;-91
2024/03/18 04:12:44;;;;;;;4.47;4.03;;;;;;;;;;5067216;28;21186;-90
2024/03/18 04:15:16;;;;;;;5.67;4.00;;;;;;;;;;5046618;28;20597;-90
2024/03/18 04:17:42;;;;;;;4.47;3.03;;;;;;;;;;5046282;28;20229;-90
2024/03/18 04:20:24;;;;;;;6.00;5.47;;;;;;;;;;5045689;28;21201;-91
2024/03/18 04:22:51;;;;;;;6.87;4.67;;;;;;;;;;5045805;28;21186;-90
2024/03/18 04:25:18;;;;;;;4.13;3.70;;;;;;;;;;5045630;28;20237;-90
2024/03/18 04:27:47;;;;;;;3.10;2.47;;;;;;;;;;5046626;28;20237;-91
2024/03/18 04:30:14;;;;;;;6.43;5.30;;;;;;;;;;5045783;28;20243;-88
2024/03/18 04:32:40;;;;;;;4.00;3.47;;;;;;;;;;5046542;28;20252;-89
2024/03/18 04:35:07;;;;;;;7.07;3.93;;;;;;;;;;5042075;28;20320;-90
2024/03/18 04:37:46;;;;;;;3.97;3.13;;;;;;;;;;5028528;28;20232;-90
2024/03/18 04:40:15;;;;;;;4.90;4.50;;;;;;;;;;5046792;28;20236;-91
2024/03/18 04:42:44;;;;;;;8.10;3.13;;;;;;;;;;5046893;28;20223;-90
2024/03/18 04:45:11;;;;;;;6.47;3.53;;;;;;;;;;5045667;28;20229;-91
2024/03/18 04:47:41;;;;;;;3.93;2.57;;;;;;;;;;5045459;28;20237;-91
2024/03/18 04:50:08;;;;;;;5.70;3.93;;;;;;;;;;5063519;28;20229;-88
2024/03/18 04:52:38;;;;;;;4.23;3.93;;;;;;;;;;5062690;28;20283;-90
2024/03/18 04:55:05;;;;;;;8.43;4.87;;;;;;;;;;5064104;28;20244;-91
2024/03/18 04:57:32;;;;;;;2.93;2.17;;;;;;;;;;5046353;28;20773;-91
2024/03/18 04:59:58;;;;;;;4.53;4.23;;;;;;;;;;5044827;28;20287;-90
2024/03/18 05:02:24;;;;;;;6.40;4.43;;;;;;;;;;5034384;28;20255;-90
2024/03/18 05:04:51;;;;;;;6.10;3.10;;;;;;;;;;5045628;28;20239;-90
2024/03/18 05:07:17;;;;;;;5.93;4.13;;;;;;;;;;5063861;28;20236;-91
2024/03/18 05:09:44;;;;;;;18.13;4.23;;;;;;;;;;5029478;28;20717;-90
2024/03/18 05:12:11;;;;;;;7.73;6.23;;;;;;;;;;5046285;28;20298;-91
2024/03/18 05:14:38;;;;;;;4.30;3.77;;;;;;;;;;5063213;28;20255;-90
2024/03/18 05:17:06;;;;;;;6.67;4.53;;;;;;;;;;5046512;28;20243;-91
2024/03/18 05:19:32;;;;;;;6.97;4.53;;;;;;;;;;5061668;28;20374;-91
2024/03/18 05:21:58;;;;;;;8.77;5.40;;;;;;;;;;5062212;28;20212;-90
2024/03/18 05:24:25;;;;;;;7.73;4.40;;;;;;;;;;5062532;28;20198;-91
2024/03/18 05:26:51;;;;;;;7.07;4.93;;;;;;;;;;5058212;28;20229;-90
2024/03/18 05:29:17;;;;;;;7.13;5.27;;;;;;;;;;5058469;28;20224;-90
2024/03/18 05:31:45;;;;;;;7.70;5.33;;;;;;;;;;5042067;28;20228;-90
2024/03/18 05:34:12;;;;;;;4.47;4.07;;;;;;;;;;5056754;28;20277;-90
2024/03/18 05:36:38;;;;;;;6.17;4.77;;;;;;;;;;5059053;28;20201;-91
2024/03/18 05:39:08;;;;;;;5.50;4.37;;;;;;;;;;5040971;28;20243;-90
2024/03/18 05:41:35;;;;;;;5.53;4.67;;;;;;;;;;5059291;28;20269;-89
2024/03/18 05:44:02;;;;;;;5.20;4.73;;;;;;;;;;5032917;28;20298;-89
2024/03/18 05:46:30;;;;;;;12.80;4.57;;;;;;;;;;5057158;28;20233;-90
2024/03/18 05:48:56;;;;;;;6.80;5.00;;;;;;;;;;5059060;28;20740;-90
2024/03/18 05:51:23;;;;;;;12.63;3.83;;;;;;;;;;5063138;28;20220;-90
2024/03/18 05:53:49;;;;;;;8.20;5.43;;;;;;;;;;5063729;28;20820;-91
2024/03/18 05:56:15;;;;;;;3.43;2.80;;;;;;;;;;5064629;28;20241;-91
2024/03/18 05:58:41;;;;;;;6.30;5.47;;;;;;;;;;5065659;28;20267;-90
2024/03/18 06:01:10;;;;;;;4.03;3.23;;;;;;;;;;5065641;28;20209;-91
2024/03/18 06:03:37;;;;;;;10.17;4.40;;;;;;;;;;5065786;28;20668;-91
2024/03/18 06:06:05;;;;;;;6.77;5.70;;;;;;;;;;5049752;28;20225;-91
2024/03/18 06:08:32;;;;;;;7.00;5.47;;;;;;;;;;5055445;28;20240;-88
2024/03/18 06:10:58;;;;;;;6.03;5.13;;;;;;;;;;5064590;28;20316;-87
2024/03/18 06:13:26;;;;;;;8.80;3.50;;;;;;;;;;5065331;28;20237;-88
2024/03/18 06:15:53;;;;;;;4.87;4.40;;;;;;;;;;5064945;28;20213;-87
2024/03/18 06:18:19;;;;;;;10.60;5.33;;;;;;;;;;5063348;28;20206;-92
2024/03/18 06:20:48;;;;;;;6.63;5.03;;;;;;;;;;5065764;28;20249;-90
2024/03/18 06:23:16;;;;;;;5.53;4.93;;;;;;;;;;5062918;28;20254;-91
2024/03/18 06:25:58;;;;;;;7.20;6.50;;;;;;;;;;5061328;28;20721;-91
2024/03/18 06:28:31;;;;;;;4.20;3.77;;;;;;;;;;5061428;28;20239;-91
2024/03/18 06:31:00;;;;;;;5.37;4.07;;;;;;;;;;5077997;28;20271;-92
2024/03/18 06:33:27;;;;;;;11.37;6.47;;;;;;;;;;5062076;28;20201;-91
2024/03/18 06:35:54;;;;;;;7.83;5.20;;;;;;;;;;5061232;28;20248;-90
2024/03/18 06:38:25;;;;;;;4.40;3.63;;;;;;;;;;5058869;28;20225;-90
2024/03/18 06:40:54;;;;;;;4.47;3.67;;;;;;;;;;5061231;28;20252;-91
2024/03/18 06:43:20;;;;;;;4.57;4.17;;;;;;;;;;5061724;28;20640;-90
2024/03/18 06:45:49;;;;;;;8.50;4.87;;;;;;;;;;5060125;28;20202;-89
2024/03/18 06:48:15;;;;;;;8.30;4.43;;;;;;;;;;5051857;28;20321;-89
2024/03/18 06:50:41;;;;;;;7.07;4.50;;;;;;;;;;5060799;28;20326;-90
2024/03/18 06:53:07;;;;;;;9.30;4.47;;;;;;;;;;5052330;28;20225;-90
2024/03/18 06:55:40;;;;;;;8.97;4.10;;;;;;;;;;5061743;28;20229;-89
2024/03/18 06:58:06;;;;;;;6.07;5.07;;;;;;;;;;5062077;28;20201;-90
2024/03/18 07:00:33;;;;;;;6.20;5.60;;;;;;;;;;5063196;28;21162;-89
2024/03/18 07:02:59;;;;;;;5.97;4.17;;;;;;;;;;5052686;28;20247;-91
2024/03/18 07:05:28;;;;;;;6.20;5.63;;;;;;;;;;5047265;28;20334;-92
2024/03/18 07:07:54;;;;;;;10.80;7.17;;;;;;;;;;5065464;28;20332;-91
2024/03/18 07:10:29;;;;;;;6.73;5.40;;;;;;;;;;5047414;28;20340;-91
2024/03/18 07:12:59;;;;;;;22.47;5.63;;;;;;;;;;5063096;28;20232;-91
2024/03/18 07:15:25;;;;;;;8.00;5.90;;;;;;;;;;5062361;28;20274;-93
2024/03/18 07:17:53;;;;;;;15.70;6.03;;;;;;;;;;5064506;28;20559;-92
2024/03/18 07:20:19;;;;;;;9.00;6.30;;;;;;;;;;5063909;28;20237;-89
2024/03/18 07:22:46;;;;;;;4.80;3.90;;;;;;;;;;5063768;28;20243;-90
2024/03/18 07:25:17;;;;;;;5.33;4.53;;;;;;;;;;5052326;28;20257;-91
2024/03/18 07:27:43;;;;;;;13.83;6.90;;;;;;;;;;5065074;28;20204;-92
2024/03/18 07:30:28;;;;;;;12.60;6.20;;;;;;;;;;5063888;28;20244;-90
2024/03/18 07:32:54;;;;;;;6.57;4.90;;;;;;;;;;5060155;28;20262;-89
2024/03/18 07:35:30;;;;;;;11.03;4.97;;;;;;;;;;5063696;28;20233;-90
2024/03/18 07:37:59;;;;;;;7.00;5.10;;;;;;;;;;5062446;28;20231;-90
2024/03/18 07:40:28;;;;;;;9.70;6.10;;;;;;;;;;5053499;28;20453;-91
2024/03/18 07:42:57;;;;;;;9.43;7.13;;;;;;;;;;5046209;28;20224;-90
2024/03/18 07:45:26;;;;;;;7.47;5.77;;;;;;;;;;5063146;28;20775;-92
2024/03/18 07:48:02;;;;;;;11.17;6.70;;;;;;;;;;5063370;28;20229;-93
2024/03/18 07:50:28;;;;;;;12.00;6.97;;;;;;;;;;5062798;28;20327;-92
2024/03/18 07:52:58;;;;;;;11.53;5.77;;;;;;;;;;5063171;28;20237;-92
2024/03/18 07:55:24;;;;;;;10.53;5.63;;;;;;;;;;5042129;28;20707;-92
2024/03/18 07:57:50;;;;;;;11.03;6.47;;;;;;;;;;5060254;28;20734;-91
2024/03/18 08:00:16;;;;;;;12.27;7.07;;;;;;;;;;5080453;28;20267;-91
2024/03/18 08:02:50;;;;;;;7.30;4.97;;;;;;;;;;5063613;28;20220;-91
2024/03/18 08:05:16;;;;;;;16.00;7.47;;;;;;;;;;5064021;28;20313;-90
2024/03/18 08:07:45;;;;;;;12.97;5.93;;;;;;;;;;5064068;28;21167;-92
2024/03/18 08:10:11;;;;;;;25.47;8.73;;;;;;;;;;5061343;28;20236;-92
2024/03/18 08:12:37;;;;;;;19.17;7.80;;;;;;;;;;5064151;28;20357;-91
2024/03/18 08:15:06;;;;;;;13.77;6.93;;;;;;;;;;5053657;28;20236;-91
2024/03/18 08:17:37;;;;;;;20.60;6.03;;;;;;;;;;5062795;28;20274;-92
2024/03/18 08:20:07;;;;;;;15.53;5.83;;;;;;;;;;5046196;28;20590;-96
2024/03/18 08:22:43;;;;;;;17.23;6.53;;;;;;;;;;5059543;28;20704;-92
2024/03/18 08:25:11;;;;;;;15.97;8.23;;;;;;;;;;5063579;28;20240;-95
2024/03/18 08:27:42;;;;;;;20.93;9.10;;;;;;;;;;5064252;28;20205;-93
2024/03/18 08:30:16;;;;;;;17.93;6.50;;;;;;;;;;5036111;28;20236;-94
2024/03/18 08:33:05;;;;;;;17.53;7.87;;;;;;;;;;5044775;28;20279;-94
2024/03/18 08:35:31;;;;;;;11.70;5.17;;;;;;;;;;5063710;28;20243;-94
2024/03/18 08:38:09;;;;;;;15.03;7.80;;;;;;;;;;5062489;28;20232;-94
2024/03/18 08:40:35;;;;;;;11.80;8.13;;;;;;;;;;5047206;28;20473;-93
2024/03/18 08:43:07;;;;;;;13.33;7.57;;;;;;;;;;5053638;28;20213;-95
2024/03/18 08:45:40;;;;;;;14.37;5.70;;;;;;;;;;5064491;28;20200;-93
2024/03/18 08:48:16;;;;;;;20.70;9.10;;;;;;;;;;5062215;28;20252;-91
2024/03/18 08:50:45;;;;;;;14.10;8.37;;;;;;;;;;5062757;28;20243;-92
2024/03/18 08:53:20;;;;;;;11.80;6.53;;;;;;;;;;5062492;28;20284;-91
2024/03/18 08:55:48;;;;;;;11.97;6.10;;;;;;;;;;5062191;28;20228;-92
2024/03/18 08:58:15;;;;;;;18.13;6.00;;;;;;;;;;5054127;28;20238;-92
2024/03/18 09:00:41;;;;;;;17.57;7.23;;;;;;;;;;5061148;28;20209;-93
2024/03/18 09:03:17;;;;;;;10.17;6.77;;;;;;;;;;5061599;28;20225;-94
2024/03/18 09:05:50;;;;;;;9.33;5.30;;;;;;;;;;5047697;28;20229;-91
2024/03/18 09:08:17;;;;;;;8.73;5.33;;;;;;;;;;5060472;28;20240;-92
2024/03/18 09:10:43;;;;;;;14.93;7.37;;;;;;;;;;5060893;28;20240;-92
2024/03/18 09:13:11;;;;;;;13.33;8.90;;;;;;;;;;5044817;28;20231;-92
2024/03/18 09:15:40;;;;;;;11.30;7.93;;;;;;;;;;5079584;28;20205;-94
2024/03/18 09:18:06;;;;;;;14.90;9.93;;;;;;;;;;5061596;28;20225;-93
2024/03/18 09:20:45;;;;;;;;;;;;;;;;;;;;;
2024/03/18 09:23:12;;;;;;;8.70;6.97;;;;;;;;;;5063938;28;20229;-92
2024/03/18 09:25:43;;;;;;;8.07;4.83;;;;;;;;;;5065967;28;20229;-92
2024/03/18 09:28:13;;;;;;;17.97;7.77;;;;;;;;;;5064533;28;20224;-93
2024/03/18 09:30:39;;;;;;;17.53;6.60;;;;;;;;;;5068684;28;20331;-93
2024/03/18 09:33:08;;;;;;;9.10;5.83;;;;;;;;;;5041848;28;20346;-91
2024/03/18 09:35:39;;;;;;;15.30;7.13;;;;;;;;;;5066242;28;20225;-93
2024/03/18 09:38:11;;;;;;;17.63;6.23;;;;;;;;;;5044688;28;20267;-93
2024/03/18 09:40:40;;;;;;;10.63;7.03;;;;;;;;;;5082851;28;20267;-91
2024/03/18 09:43:13;;;;;;;10.50;5.80;;;;;;;;;;5084381;28;20210;-90
2024/03/18 09:45:40;;;;;;;16.63;7.00;;;;;;;;;;5067005;28;20194;-94
2024/03/18 09:48:12;;;;;;;12.67;7.03;;;;;;;;;;5057243;28;20229;-94
2024/03/18 09:50:46;;;;;;;9.60;6.63;;;;;;;;;;5065023;28;20709;-92
2024/03/18 09:53:13;;;;;;;17.07;8.37;;;;;;;;;;5066182;28;20267;-93
2024/03/18 09:55:40;;;;;;;11.33;6.53;;;;;;;;;;5064576;28;20248;-93
2024/03/18 09:58:11;;;;;;;15.47;7.93;;;;;;;;;;5065462;28;20725;-93
2024/03/18 10:00:40;;;;;;;13.63;6.97;;;;;;;;;;5065708;28;20205;-93
2024/03/18 10:03:14;;;;;;;9.60;6.10;;;;;;;;;;5040754;28;20749;-93
2024/03/18 10:05:42;;;;;;;18.53;8.77;;;;;;;;;;5065228;28;20319;-93
2024/03/18 10:08:12;;;;;;;14.10;6.50;;;;;;;;;;5065147;28;20263;-93
2024/03/18 10:10:38;;;;;;;18.27;9.23;;;;;;;;;;5062464;28;20233;-93
2024/03/18 10:13:07;;;;;;;16.37;8.27;;;;;;;;;;5064955;28;20232;-95
2024/03/18 10:15:33;;;;;;;16.80;9.27;;;;;;;;;;5065518;28;20205;-92
2024/03/18 10:18:00;;;;;;;18.13;9.70;;;;;;;;;;5057249;28;20282;-94
2024/03/18 10:20:28;;;;;;;14.60;6.97;;;;;;;;;;5062047;28;20233;-94
2024/03/18 10:22:55;;;;;;;14.13;8.73;;;;;;;;;;5064141;28;20229;-94
2024/03/18 10:25:21;;;;;;;18.10;9.87;;;;;;;;;;5065817;28;20240;-93
2024/03/18 10:27:50;;;;;;;15.43;8.30;;;;;;;;;;5066595;28;20209;-93
2024/03/18 10:30:17;;;;;;;15.17;6.73;;;;;;;;;;5038636;28;20240;-94
2024/03/18 10:32:43;;;;;;;7.77;4.83;;;;;;;;;;5054969;28;20240;-93
2024/03/18 10:35:26;;;;;;;13.83;9.53;;;;;;;;;;5063119;28;20243;-93
2024/03/18 10:38:02;;;;;;;12.50;6.43;;;;;;;;;;5063827;28;20229;-94
2024/03/18 10:40:33;;;;;;;13.67;7.30;;;;;;;;;;5055757;28;20260;-92
2024/03/18 10:43:03;;;;;;;7.13;4.07;;;;;;;;;;5064475;28;20316;-93
2024/03/18 10:45:31;;;;;;;11.37;3.77;;;;;;;;;;5065275;28;20216;-92
2024/03/18 10:48:02;;;;;;;10.07;3.70;;;;;;;;;;5064053;28;20236;-92
2024/03/18 10:50:29;;;;;;;5.70;3.90;;;;;;;;;;5063841;28;20263;-89
2024/03/18 10:52:55;;;;;;;9.27;4.67;;;;;;;;;;5065649;28;20236;-90
2024/03/18 10:55:22;;;;;;;9.93;5.27;;;;;;;;;;5047594;28;20232;-89
2024/03/18 10:57:52;;;;;;;7.57;4.47;;;;;;;;;;5049711;28;20284;-89
2024/03/18 11:00:19;;;;;;;6.17;4.03;;;;;;;;;;5064169;28;20237;-90
2024/03/18 11:02:54;;;;;;;7.73;3.63;;;;;;;;;;5047058;28;20340;-91
2024/03/18 11:05:29;;;;;;;7.73;5.57;;;;;;;;;;5065046;28;20308;-91
2024/03/18 11:07:58;;;;;;;5.93;4.93;;;;;;;;;;5062999;28;20225;-90
2024/03/18 11:10:27;;;;;;;15.40;7.13;;;;;;;;;;5064516;28;20237;-90
2024/03/18 11:12:53;;;;;;;12.87;4.63;;;;;;;;;;5058862;28;20308;-90
2024/03/18 11:15:19;;;;;;;15.63;7.20;;;;;;;;;;5064527;28;20208;-90
2024/03/18 11:17:46;;;;;;;8.73;3.87;;;;;;;;;;5045680;28;20236;-91
2024/03/18 11:20:14;;;;;;;11.07;6.07;;;;;;;;;;5062574;28;20731;-90
2024/03/18 11:22:47;;;;;;;5.33;4.80;;;;;;;;;;5081192;28;20230;-90
2024/03/18 11:25:22;;;;;;;11.67;5.40;;;;;;;;;;5063242;28;20709;-90
2024/03/18 11:27:52;;;;;;;14.37;4.67;;;;;;;;;;5063713;28;20200;-90
2024/03/18 11:30:29;;;;;;;11.03;4.77;;;;;;;;;;5054723;28;20244;-91
2024/03/18 11:32:56;;;;;;;4.60;3.63;;;;;;;;;;5063666;28;20225;-90
2024/03/18 11:35:22;;;;;;;5.13;4.47;;;;;;;;;;5063046;28;20320;-90
2024/03/18 11:37:48;;;;;;;12.63;5.20;;;;;;;;;;5063490;28;20249;-91
2024/03/18 11:40:19;;;;;;;6.90;4.37;;;;;;;;;;5064622;28;20260;-91
2024/03/18 11:42:45;;;;;;;14.37;3.27;;;;;;;;;;5064298;28;20201;-91
2024/03/18 11:45:19;;;;;;;5.07;3.40;;;;;;;;;;5062006;28;20229;-91
2024/03/18 11:47:46;;;;;;;9.70;4.43;;;;;;;;;;5060948;28;20263;-91
2024/03/18 11:50:14;;;;;;;10.23;4.37;;;;;;;;;;5061419;28;20240;-91
2024/03/18 11:52:44;;;;;;;6.07;3.63;;;;;;;;;;5061703;28;20556;-92
2024/03/18 11:55:17;;;;;;;10.77;5.50;;;;;;;;;;5062000;28;20240;-92
2024/03/18 11:57:46;;;;;;;10.83;4.53;;;;;;;;;;5063561;28;20657;-92
2024/03/18 12:00:12;;;;;;;4.73;4.03;;;;;;;;;;5062620;28;20229;-91
2024/03/18 12:02:42;;;;;;;4.83;3.27;;;;;;;;;;5062001;28;20273;-92
2024/03/18 12:05:09;;;;;;;5.77;2.83;;;;;;;;;;5057032;28;20390;-94
2024/03/18 12:07:38;;;;;;;14.30;3.70;;;;;;;;;;5062353;28;20236;-92
2024/03/18 12:10:05;;;;;;;6.27;2.33;;;;;;;;;;5061175;28;20205;-93
2024/03/18 12:12:38;;;;;;;4.80;3.30;;;;;;;;;;5063427;28;20221;-94
2024/03/18 12:15:07;;;;;;;8.97;3.47;;;;;;;;;;5053654;28;20697;-93
2024/03/18 12:17:36;;;;;;;3.73;1.77;;;;;;;;;;5046250;28;20323;-89
2024/03/18 12:20:03;;;;;;;6.93;2.17;;;;;;;;;;5062113;28;20250;-90
2024/03/18 12:22:29;;;;;;;4.10;1.73;;;;;;;;;;5063142;28;20260;-89
2024/03/18 12:30:34;;;;;;;13.43;1.97;;;;;;;;;;5063948;28;20235;-88
2024/03/18 12:33:05;;;;;;;3.30;1.77;;;;;;;;;;5059651;28;20322;-89
2024/03/18 12:35:32;;;;;;;6.30;1.77;;;;;;;;;;5062961;28;20302;-88
2024/03/18 12:37:58;;;;;;;6.90;1.77;;;;;;;;;;5060994;28;20224;-88
2024/03/18 12:40:25;;;;;;;2.10;1.67;;;;;;;;;;5045550;28;20229;-89
2024/03/18 12:42:56;;;;;;;6.10;1.63;;;;;;;;;;5061726;28;20205;-89
2024/03/18 12:45:23;;;;;;;9.73;1.33;;;;;;;;;;5063917;28;20849;-89
2024/03/18 12:47:52;;;;;;;2.60;1.57;;;;;;;;;;5063001;28;20757;-89
2024/03/18 12:50:18;;;;;;;1.90;1.47;;;;;;;;;;5045644;28;20458;-88
2024/03/18 12:52:46;;;;;;;1.57;1.47;;;;;;;;;;5061032;28;20429;-89
2024/03/18 12:55:13;;;;;;;1.93;1.47;;;;;;;;;;5045435;28;20240;-88
2024/03/18 12:57:41;;;;;;;1.90;1.57;;;;;;;;;;5060823;28;20208;-89
2024/03/18 13:00:14;;;;;;;6.57;1.50;;;;;;;;;;5061284;28;20225;-89
2024/03/18 13:02:40;;;;;;;1.47;1.00;;;;;;;;;;5063283;28;20589;-89
2024/03/18 13:05:08;;;;;;;2.70;1.57;;;;;;;;;;5062789;28;20236;-91
2024/03/18 13:07:35;;;;;;;1.70;1.57;;;;;;;;;;5063663;28;20233;-88
2024/03/18 13:10:01;;;;;;;5.33;2.07;;;;;;;;;;5058607;28;20236;-88
2024/03/18 13:12:27;;;;;;;1.20;1.10;;;;;;;;;;5062785;28;20220;-88
2024/03/18 13:14:54;;;;;;;4.53;1.37;;;;;;;;;;5062958;28;20637;-87
2024/03/18 13:17:26;;;;;;;2.83;0.97;;;;;;;;;;5039558;28;20607;-87
2024/03/18 13:19:53;;;;;;;1.73;0.73;;;;;;;;;;5065232;28;20242;-89
2024/03/18 13:22:19;;;;;;;1.17;1.17;;;;;;;;;;5060494;28;20302;-89
2024/03/18 13:24:45;;;;;;;4.53;0.97;;;;;;;;;;5061731;28;20206;-88
2024/03/18 13:27:14;;;;;;;0.93;0.50;;;;;;;;;;5062469;28;20851;-88
2024/03/18 13:29:41;;;;;;;1.33;1.13;;;;;;;;;;5063389;28;20237;-87
2024/03/18 13:32:07;;;;;;;1.30;0.87;;;;;;;;;;5059684;28;20256;-89
2024/03/18 13:34:34;;;;;;;1.00;0.90;;;;;;;;;;5061548;28;20256;-87
2024/03/18 13:37:00;;;;;;;6.80;1.23;;;;;;;;;;5061641;28;20740;-87
2024/03/18 13:39:28;;;;;;;2.13;1.17;;;;;;;;;;5060009;28;20237;-89
2024/03/18 13:42:00;;;;;;;4.00;1.10;;;;;;;;;;5061975;28;20282;-86
2024/03/18 13:44:27;;;;;;;2.30;0.93;;;;;;;;;;5060614;28;20228;-87
2024/03/18 13:46:56;;;;;;;7.77;1.83;;;;;;;;;;5062703;28;20229;-88
2024/03/18 13:49:22;;;;;;;1.83;1.00;;;;;;;;;;5062170;28;20587;-87
2024/03/18 13:51:49;;;;;;;0.73;0.43;;;;;;;;;;5060384;28;20857;-89
2024/03/18 13:54:15;;;;;;;0.67;0.67;;;;;;;;;;5062912;28;20685;-89
2024/03/18 13:56:42;;;;;;;1.13;0.70;;;;;;;;;;5057011;28;20229;-88
2024/03/18 13:59:09;;;;;;;2.40;0.97;;;;;;;;;;5061352;28;20229;-90
2024/03/18 14:01:35;;;;;;;1.27;0.50;;;;;;;;;;5056313;28;20236;-88
2024/03/18 14:04:01;;;;;;;2.77;0.63;;;;;;;;;;5053067;28;20201;-90
2024/03/18 14:06:27;;;;;;;3.23;1.10;;;;;;;;;;5049580;28;20675;-89
2024/03/18 14:08:54;;;;;;;3.63;0.83;;;;;;;;;;5057889;28;20225;-89
2024/03/18 14:11:23;;;;;;;0.50;0.50;;;;;;;;;;5063694;28;20244;-93
2024/03/18 14:13:49;;;;;;;3.90;1.73;;;;;;;;;;5063898;28;20715;-90
2024/03/18 14:16:15;;;;;;;11.47;1.40;;;;;;;;;;5060047;28;20232;-90
2024/03/18 14:18:41;;;;;;;0.57;0.53;;;;;;;;;;5064365;28;20220;-90
2024/03/18 14:21:09;;;;;;;11.30;1.43;;;;;;;;;;5063787;28;20693;-90
2024/03/18 14:23:38;;;;;;;1.57;1.13;;;;;;;;;;5064756;28;20229;-90
2024/03/18 14:26:07;;;;;;;3.20;1.10;;;;;;;;;;5064733;28;20625;-90
2024/03/18 14:28:33;;;;;;;6.50;2.13;;;;;;;;;;5065256;28;20229;-91
2024/03/18 14:31:02;;;;;;;0.50;0.50;;;;;;;;;;5063015;28;20215;-88
2024/03/18 14:33:28;;;;;;;1.67;1.00;;;;;;;;;;5063164;28;20555;-90
2024/03/18 14:35:58;;;;;;;0.73;0.73;;;;;;;;;;5064732;28;20229;-89
2024/03/18 14:38:24;;;;;;;6.33;1.70;;;;;;;;;;5063940;28;20282;-90
2024/03/18 14:40:50;;;;;;;3.80;1.10;;;;;;;;;;5062683;28;20229;-91
2024/03/18 14:43:16;;;;;;;9.27;1.27;;;;;;;;;;5046432;28;20457;-90
2024/03/18 14:45:42;;;;;;;5.90;0.80;;;;;;;;;;5061880;28;20228;-89
2024/03/18 14:48:12;;;;;;;1.33;1.13;;;;;;;;;;5061835;28;20569;-88
2024/03/18 14:50:39;;;;;;;1.07;0.63;;;;;;;;;;5063476;28;20713;-89
2024/03/18 14:53:05;;;;;;;2.57;0.80;;;;;;;;;;5062702;28;20235;-89
2024/03/18 14:55:35;;;;;;;5.20;0.60;;;;;;;;;;5046803;28;20673;-89